Time;durP1;ratioP1;P1;durP2;ratioP2;P2;SDS_P1;SDS_P2;PMS_P1;PMS_P2;Temp;Humidity;BMP_temperature;BMP_pressure;BME280_temperature;BME280_humidity;BME280_pressure;Samples;Min_cycle;Max_cycle;Signal;HPM_P1;HPM_P2
2021/07/11 00:01:13;;;;;;;10.13;8.48;;;;;;;;;;5016976;28;20114;-83
2021/07/11 00:03:38;;;;;;;10.38;8.20;;;;;;;;;;5015282;28;20496;-83
2021/07/11 00:06:04;;;;;;;9.77;8.02;;;;;;;;;;5027663;28;20116;-83
2021/07/11 00:08:29;;;;;;;11.25;8.45;;;;;;;;;;4980320;28;20180;-83
2021/07/11 00:10:54;;;;;;;9.50;8.48;;;;;;;;;;5016485;28;20121;-83
2021/07/11 00:13:20;;;;;;;10.98;9.00;;;;;;;;;;5019431;28;20038;-83
2021/07/11 00:15:45;;;;;;;9.93;8.70;;;;;;;;;;4998055;28;20538;-83
2021/07/11 00:18:11;;;;;;;9.48;8.48;;;;;;;;;;5016548;28;20026;-83
2021/07/11 00:20:37;;;;;;;11.23;8.80;;;;;;;;;;5017313;28;20113;-83
2021/07/11 00:23:02;;;;;;;11.73;9.18;;;;;;;;;;5031441;28;20026;-83
2021/07/11 00:25:28;;;;;;;11.18;9.30;;;;;;;;;;5033112;28;20022;-83
2021/07/11 00:27:55;;;;;;;11.70;9.95;;;;;;;;;;5016450;28;20497;-83
2021/07/11 00:30:22;;;;;;;11.55;9.43;;;;;;;;;;5016604;28;20044;-83
2021/07/11 00:32:47;;;;;;;13.70;11.68;;;;;;;;;;5017005;28;20517;-83
2021/07/11 00:35:13;;;;;;;13.98;10.77;;;;;;;;;;5014640;28;20041;-83
2021/07/11 00:37:39;;;;;;;10.77;9.57;;;;;;;;;;5027315;28;20124;-83
2021/07/11 00:40:06;;;;;;;10.25;9.10;;;;;;;;;;5015082;28;20026;-83
2021/07/11 00:42:32;;;;;;;13.77;12.38;;;;;;;;;;5020267;28;20034;-83
2021/07/11 00:44:57;;;;;;;15.82;14.13;;;;;;;;;;5016421;28;20057;-83
2021/07/11 00:47:23;;;;;;;11.40;9.95;;;;;;;;;;5016993;28;20056;-83
2021/07/11 00:49:49;;;;;;;11.93;10.68;;;;;;;;;;5001586;28;20038;-83
2021/07/11 00:52:14;;;;;;;11.10;9.93;;;;;;;;;;4998543;28;20125;-83
2021/07/11 00:54:40;;;;;;;14.43;12.93;;;;;;;;;;4997209;28;20037;-83
2021/07/11 00:57:07;;;;;;;15.75;14.10;;;;;;;;;;5013492;28;20045;-83
2021/07/11 00:59:33;;;;;;;16.23;13.38;;;;;;;;;;5018778;28;20030;-83
2021/07/11 01:02:11;;;;;;;14.73;13.13;;;;;;;;;;5001945;28;20092;-83
2021/07/11 01:04:52;;;;;;;16.80;13.80;;;;;;;;;;5027597;28;20048;-83
2021/07/11 01:07:35;;;;;;;12.48;11.15;;;;;;;;;;5015508;28;20030;-83
2021/07/11 01:10:06;;;;;;;12.40;11.05;;;;;;;;;;5014887;28;20113;-83
2021/07/11 01:12:38;;;;;;;16.00;13.52;;;;;;;;;;5030513;28;20038;-83
2021/07/11 01:15:05;;;;;;;16.17;14.07;;;;;;;;;;5017210;28;20025;-83
2021/07/11 01:17:31;;;;;;;15.27;13.68;;;;;;;;;;5016209;28;20448;-83
2021/07/11 01:20:34;;;;;;;15.48;13.27;;;;;;;;;;5014482;28;20113;-83
2021/07/11 01:23:02;;;;;;;17.13;13.15;;;;;;;;;;5014870;28;20513;-83
2021/07/11 01:25:42;;;;;;;13.70;12.05;;;;;;;;;;5014085;28;20049;-83
2021/07/11 01:28:20;;;;;;;13.07;11.15;;;;;;;;;;5014125;28;20026;-83
2021/07/11 01:30:47;;;;;;;13.20;11.80;;;;;;;;;;5017046;28;20029;-83
2021/07/11 01:33:14;;;;;;;18.02;13.90;;;;;;;;;;5014885;28;20041;-83
2021/07/11 01:35:40;;;;;;;13.52;12.10;;;;;;;;;;5029666;28;20117;-82
2021/07/11 01:38:07;;;;;;;11.93;10.05;;;;;;;;;;5015021;28;20454;-83
2021/07/11 01:40:33;;;;;;;15.32;13.73;;;;;;;;;;5013260;28;20092;-83
2021/07/11 01:43:00;;;;;;;11.73;10.52;;;;;;;;;;4990556;28;20027;-83
2021/07/11 01:45:26;;;;;;;16.45;13.60;;;;;;;;;;5008112;28;20037;-83
2021/07/11 01:47:53;;;;;;;10.85;9.45;;;;;;;;;;5009027;28;20037;-83
2021/07/11 01:50:19;;;;;;;11.98;10.35;;;;;;;;;;5031632;28;20500;-83
2021/07/11 01:52:46;;;;;;;11.52;10.32;;;;;;;;;;4996534;28;20038;-83
2021/07/11 01:55:12;;;;;;;12.82;11.05;;;;;;;;;;4997269;28;20032;-83
2021/07/11 01:57:39;;;;;;;15.73;13.23;;;;;;;;;;4995632;28;20074;-83
2021/07/11 02:00:11;;;;;;;17.98;14.98;;;;;;;;;;5018596;28;20029;-83
2021/07/11 02:02:36;;;;;;;15.18;12.55;;;;;;;;;;5020804;28;20465;-83
2021/07/11 02:05:06;;;;;;;17.27;15.20;;;;;;;;;;5030363;28;20068;-83
2021/07/11 02:07:32;;;;;;;17.13;15.27;;;;;;;;;;5013478;28;20085;-83
2021/07/11 02:09:57;;;;;;;18.92;16.08;;;;;;;;;;5015021;28;20061;-83
2021/07/11 02:12:24;;;;;;;19.75;15.52;;;;;;;;;;4986028;28;20034;-83
2021/07/11 02:14:53;;;;;;;16.20;14.40;;;;;;;;;;5016404;28;20029;-83
2021/07/11 02:17:23;;;;;;;18.65;14.98;;;;;;;;;;5014168;28;20028;-83
2021/07/11 02:19:50;;;;;;;18.08;15.80;;;;;;;;;;5018659;28;20022;-83
2021/07/11 02:22:16;;;;;;;19.63;16.70;;;;;;;;;;5021185;28;20040;-83
2021/07/11 02:24:44;;;;;;;17.73;15.77;;;;;;;;;;5018085;28;20033;-83
2021/07/11 02:27:10;;;;;;;18.35;16.08;;;;;;;;;;5031653;28;20461;-83
2021/07/11 02:29:40;;;;;;;20.15;16.63;;;;;;;;;;5017069;28;20481;-83
2021/07/11 02:32:08;;;;;;;19.30;17.20;;;;;;;;;;5007087;28;20022;-83
2021/07/11 02:34:36;;;;;;;19.75;16.25;;;;;;;;;;5011876;28;20034;-83
2021/07/11 02:37:02;;;;;;;19.67;16.42;;;;;;;;;;5017453;28;20432;-83
2021/07/11 02:39:28;;;;;;;19.33;16.20;;;;;;;;;;4991120;28;20168;-83
2021/07/11 02:42:09;;;;;;;18.52;15.65;;;;;;;;;;5016871;28;20071;-83
2021/07/11 02:44:36;;;;;;;18.52;16.13;;;;;;;;;;5032763;28;20544;-83
2021/07/11 02:47:06;;;;;;;21.02;16.67;;;;;;;;;;5014925;28;20037;-83
2021/07/11 02:49:33;;;;;;;20.65;16.88;;;;;;;;;;5018051;28;20030;-83
2021/07/11 02:52:03;;;;;;;21.08;17.13;;;;;;;;;;5016031;28;20037;-83
2021/07/11 02:54:36;;;;;;;19.25;17.02;;;;;;;;;;5030952;28;20026;-83
2021/07/11 02:57:05;;;;;;;18.67;16.33;;;;;;;;;;5016836;28;20099;-83
2021/07/11 02:59:32;;;;;;;19.17;16.25;;;;;;;;;;5016079;28;20053;-83
2021/07/11 03:02:03;;;;;;;20.02;16.70;;;;;;;;;;5018042;28;20494;-83
2021/07/11 03:04:31;;;;;;;19.65;16.15;;;;;;;;;;5015486;28;20663;-83
2021/07/11 03:06:57;;;;;;;22.63;17.70;;;;;;;;;;5018268;28;20041;-83
2021/07/11 03:09:22;;;;;;;19.98;17.15;;;;;;;;;;5018536;28;20029;-82
2021/07/11 03:11:49;;;;;;;19.55;17.00;;;;;;;;;;5019458;28;20451;-83
2021/07/11 03:14:15;;;;;;;18.98;16.90;;;;;;;;;;4998093;28;20026;-83
2021/07/11 03:16:51;;;;;;;22.77;18.05;;;;;;;;;;5011416;28;21777;-83
2021/07/11 03:19:18;;;;;;;19.77;17.35;;;;;;;;;;5012480;28;20037;-83
2021/07/11 03:21:46;;;;;;;18.95;15.75;;;;;;;;;;5017646;28;20079;-83
2021/07/11 03:24:11;;;;;;;18.50;14.32;;;;;;;;;;5019011;28;20032;-82
2021/07/11 03:26:39;;;;;;;17.58;14.43;;;;;;;;;;4994025;28;20046;-83
2021/07/11 03:29:10;;;;;;;17.48;14.00;;;;;;;;;;4997793;28;20080;-83
2021/07/11 03:31:35;;;;;;;20.50;16.30;;;;;;;;;;5015517;28;20906;-83
2021/07/11 03:34:02;;;;;;;16.95;13.93;;;;;;;;;;5014814;28;20025;-83
2021/07/11 03:36:31;;;;;;;17.70;13.50;;;;;;;;;;5017297;28;20037;-83
2021/07/11 03:39:00;;;;;;;19.20;16.02;;;;;;;;;;5030983;28;20386;-83
2021/07/11 03:41:32;;;;;;;19.40;16.52;;;;;;;;;;5001432;28;20026;-83
2021/07/11 03:43:59;;;;;;;19.60;16.45;;;;;;;;;;5017993;28;20105;-83
2021/07/11 03:46:28;;;;;;;20.40;16.48;;;;;;;;;;5010874;28;20034;-82
2021/07/11 03:48:59;;;;;;;20.80;16.67;;;;;;;;;;5016555;28;20029;-82
2021/07/11 03:51:32;;;;;;;17.83;14.95;;;;;;;;;;5014691;28;20117;-83
2021/07/11 03:53:58;;;;;;;18.10;13.60;;;;;;;;;;5016638;28;20034;-83
2021/07/11 03:56:27;;;;;;;16.52;13.25;;;;;;;;;;5034507;28;20057;-83
2021/07/11 03:58:56;;;;;;;16.90;13.18;;;;;;;;;;5016096;28;20018;-82
2021/07/11 04:01:24;;;;;;;16.02;13.13;;;;;;;;;;5016893;28;20026;-83
2021/07/11 04:03:50;;;;;;;16.90;13.23;;;;;;;;;;5013232;28;20037;-83
2021/07/11 04:06:19;;;;;;;21.38;15.95;;;;;;;;;;4978243;28;20033;-83
2021/07/11 04:08:45;;;;;;;21.83;16.95;;;;;;;;;;5013023;28;21613;-83
2021/07/11 04:11:11;;;;;;;20.58;16.17;;;;;;;;;;5016199;28;20417;-83
2021/07/11 04:13:37;;;;;;;18.05;14.30;;;;;;;;;;5028943;28;20038;-83
2021/07/11 04:16:05;;;;;;;17.35;13.30;;;;;;;;;;5014806;28;20082;-83
2021/07/11 04:18:39;;;;;;;18.20;13.80;;;;;;;;;;5033074;28;20092;-82
2021/07/11 04:21:05;;;;;;;17.92;13.60;;;;;;;;;;5015101;28;20026;-83
2021/07/11 04:23:34;;;;;;;18.38;14.90;;;;;;;;;;5015446;28;20112;-83
2021/07/11 04:26:01;;;;;;;19.73;15.77;;;;;;;;;;5029135;28;20033;-82
2021/07/11 04:28:31;;;;;;;21.05;16.25;;;;;;;;;;5015330;28;20045;-83
2021/07/11 04:30:59;;;;;;;21.85;16.25;;;;;;;;;;5019838;28;20030;-83
2021/07/11 04:33:25;;;;;;;18.38;13.90;;;;;;;;;;5017292;28;20030;-83
2021/07/11 04:35:50;;;;;;;14.40;11.38;;;;;;;;;;5016791;28;20040;-82
2021/07/11 04:38:15;;;;;;;13.85;11.35;;;;;;;;;;5011556;28;20091;-82
2021/07/11 04:40:41;;;;;;;14.68;11.55;;;;;;;;;;5014228;28;20037;-83
2021/07/11 04:43:06;;;;;;;15.95;12.38;;;;;;;;;;5015521;28;20034;-82
2021/07/11 04:45:32;;;;;;;15.98;11.90;;;;;;;;;;4982576;28;20041;-83
2021/07/11 04:47:57;;;;;;;15.40;11.98;;;;;;;;;;5000071;28;20048;-83
2021/07/11 04:50:23;;;;;;;15.88;12.45;;;;;;;;;;4997625;28;20072;-83
2021/07/11 04:52:48;;;;;;;14.02;12.07;;;;;;;;;;5013094;28;20550;-82
2021/07/11 04:55:17;;;;;;;15.05;11.70;;;;;;;;;;5031273;28;20168;-83
2021/07/11 04:57:43;;;;;;;15.65;11.35;;;;;;;;;;4998070;28;20079;-82
2021/07/11 05:00:11;;;;;;;14.88;12.13;;;;;;;;;;5009540;28;20026;-82
2021/07/11 05:02:38;;;;;;;15.40;11.57;;;;;;;;;;5015353;28;20493;-83
2021/07/11 05:05:05;;;;;;;15.45;11.98;;;;;;;;;;5031421;28;20033;-82
2021/07/11 05:07:31;;;;;;;14.27;11.57;;;;;;;;;;5030529;28;20087;-83
2021/07/11 05:09:57;;;;;;;14.88;11.90;;;;;;;;;;5020790;28;20026;-83
2021/07/11 05:12:23;;;;;;;16.75;12.38;;;;;;;;;;5032610;28;20493;-83
2021/07/11 05:14:48;;;;;;;16.27;12.65;;;;;;;;;;5000941;28;20061;-82
2021/07/11 05:17:14;;;;;;;16.85;12.77;;;;;;;;;;4999189;28;20038;-83
2021/07/11 05:19:40;;;;;;;18.45;13.38;;;;;;;;;;5016822;28;20037;-83
2021/07/11 05:22:05;;;;;;;16.60;12.50;;;;;;;;;;5016625;28;20389;-83
2021/07/11 05:24:31;;;;;;;18.15;13.20;;;;;;;;;;5016061;28;20030;-83
2021/07/11 05:26:56;;;;;;;16.13;12.68;;;;;;;;;;5000279;28;20041;-83
2021/07/11 05:29:21;;;;;;;15.05;11.90;;;;;;;;;;5013582;28;20041;-83
2021/07/11 05:31:47;;;;;;;17.95;13.30;;;;;;;;;;4998290;28;20493;-83
2021/07/11 05:34:12;;;;;;;15.93;12.57;;;;;;;;;;5014156;28;20034;-83
2021/07/11 05:36:38;;;;;;;16.25;13.75;;;;;;;;;;4998220;28;20040;-83
2021/07/11 05:39:04;;;;;;;16.98;13.35;;;;;;;;;;5014631;28;20033;-83
2021/07/11 05:41:30;;;;;;;18.00;13.20;;;;;;;;;;4983139;28;20076;-83
2021/07/11 05:43:57;;;;;;;17.85;13.45;;;;;;;;;;5012423;28;20482;-83
2021/07/11 05:46:22;;;;;;;17.92;14.65;;;;;;;;;;5015127;28;20393;-83
2021/07/11 05:48:48;;;;;;;16.45;13.90;;;;;;;;;;4980950;28;20037;-83
2021/07/11 05:51:13;;;;;;;16.17;13.57;;;;;;;;;;5014261;28;20033;-83
2021/07/11 05:53:38;;;;;;;20.90;15.55;;;;;;;;;;5018302;28;20051;-83
2021/07/11 05:56:04;;;;;;;17.90;14.18;;;;;;;;;;5014468;28;20405;-83
2021/07/11 05:58:29;;;;;;;19.10;15.55;;;;;;;;;;5034083;28;20058;-83
2021/07/11 06:00:55;;;;;;;19.60;15.95;;;;;;;;;;5001906;28;20041;-82
2021/07/11 06:03:20;;;;;;;18.50;15.07;;;;;;;;;;5002128;28;20450;-83
2021/07/11 06:05:46;;;;;;;19.13;16.20;;;;;;;;;;5002393;28;20112;-83
2021/07/11 06:08:11;;;;;;;18.50;15.50;;;;;;;;;;5019766;28;20393;-83
2021/07/11 06:10:37;;;;;;;16.75;13.38;;;;;;;;;;5016487;28;20076;-83
2021/07/11 06:13:02;;;;;;;19.20;15.70;;;;;;;;;;5000050;28;20026;-83
2021/07/11 06:15:28;;;;;;;19.08;16.23;;;;;;;;;;5032636;28;20030;-83
2021/07/11 06:17:54;;;;;;;20.77;16.92;;;;;;;;;;5010864;28;20034;-83
2021/07/11 06:20:20;;;;;;;17.30;15.38;;;;;;;;;;4999225;28;20037;-83
2021/07/11 06:22:46;;;;;;;18.33;14.90;;;;;;;;;;5015321;28;20026;-83
2021/07/11 06:25:11;;;;;;;18.92;14.57;;;;;;;;;;5013866;28;20378;-83
2021/07/11 06:27:38;;;;;;;16.23;13.93;;;;;;;;;;5015682;28;20104;-84
2021/07/11 06:30:06;;;;;;;17.50;13.85;;;;;;;;;;5000740;28;20032;-83
2021/07/11 06:32:31;;;;;;;16.90;12.90;;;;;;;;;;5015505;28;20095;-83
2021/07/11 06:34:57;;;;;;;16.00;12.82;;;;;;;;;;5002626;28;20038;-83
2021/07/11 06:37:22;;;;;;;16.60;13.00;;;;;;;;;;4998343;28;20493;-83
2021/07/11 06:39:48;;;;;;;15.55;13.05;;;;;;;;;;5016250;28;20057;-83
2021/07/11 06:42:13;;;;;;;16.27;12.48;;;;;;;;;;4983564;28;20026;-83
2021/07/11 06:44:38;;;;;;;14.45;12.65;;;;;;;;;;5016353;28;20021;-83
2021/07/11 06:47:04;;;;;;;17.42;14.68;;;;;;;;;;5017375;28;20096;-83
2021/07/11 06:49:29;;;;;;;27.83;20.30;;;;;;;;;;5014560;28;20029;-83
2021/07/11 06:51:55;;;;;;;23.30;19.10;;;;;;;;;;5010306;28;20048;-82
2021/07/11 06:54:20;;;;;;;20.70;16.30;;;;;;;;;;5015119;28;20048;-83
2021/07/11 06:56:46;;;;;;;27.75;21.02;;;;;;;;;;5000616;28;20050;-82
2021/07/11 06:59:11;;;;;;;26.02;19.88;;;;;;;;;;4998929;28;20437;-82
2021/07/11 07:01:37;;;;;;;25.90;19.33;;;;;;;;;;5012573;28;20033;-83
2021/07/11 07:04:03;;;;;;;26.13;20.65;;;;;;;;;;5006952;28;20037;-82
2021/07/11 07:06:28;;;;;;;27.30;20.80;;;;;;;;;;4991016;28;20394;-82
2021/07/11 07:08:54;;;;;;;23.42;17.42;;;;;;;;;;5002811;28;20034;-82
2021/07/11 07:11:19;;;;;;;30.70;22.88;;;;;;;;;;4993552;28;20088;-82
2021/07/11 07:13:44;;;;;;;28.17;20.23;;;;;;;;;;5011077;28;20037;-82
2021/07/11 07:16:10;;;;;;;28.27;20.90;;;;;;;;;;5005598;28;20434;-82
2021/07/11 07:18:35;;;;;;;30.55;22.20;;;;;;;;;;5009181;28;20129;-82
2021/07/11 07:21:01;;;;;;;26.75;19.42;;;;;;;;;;4988650;28;20037;-82
2021/07/11 07:23:26;;;;;;;31.23;22.85;;;;;;;;;;5008102;28;20390;-82
2021/07/11 07:25:52;;;;;;;31.13;23.85;;;;;;;;;;5003514;28;20034;-82
2021/07/11 07:28:17;;;;;;;29.00;21.02;;;;;;;;;;4983616;28;20053;-82
2021/07/11 07:30:43;;;;;;;27.92;20.55;;;;;;;;;;5007509;28;20034;-83
2021/07/11 07:33:09;;;;;;;31.88;22.48;;;;;;;;;;5008620;28;20115;-84
2021/07/11 07:35:35;;;;;;;31.35;22.35;;;;;;;;;;5025478;28;20036;-84
2021/07/11 07:38:00;;;;;;;28.20;20.05;;;;;;;;;;4993266;28;20029;-84
2021/07/11 07:40:26;;;;;;;36.05;25.15;;;;;;;;;;5005338;28;20626;-84
2021/07/11 07:42:51;;;;;;;31.65;23.33;;;;;;;;;;4993541;28;20096;-84
2021/07/11 07:45:17;;;;;;;35.58;24.88;;;;;;;;;;4988419;28;20375;-83
2021/07/11 07:47:43;;;;;;;33.85;24.45;;;;;;;;;;5025716;28;20107;-83
2021/07/11 07:50:10;;;;;;;32.83;23.20;;;;;;;;;;4999296;28;20045;-83
2021/07/11 07:52:36;;;;;;;34.85;24.35;;;;;;;;;;5010058;28;20033;-83
2021/07/11 07:55:04;;;;;;;35.17;24.65;;;;;;;;;;5012420;28;20137;-83
2021/07/11 07:57:29;;;;;;;40.70;26.83;;;;;;;;;;5010611;28;21034;-83
2021/07/11 07:59:55;;;;;;;38.55;25.65;;;;;;;;;;4994849;28;20038;-83
2021/07/11 08:02:22;;;;;;;39.20;25.95;;;;;;;;;;5009418;28;20030;-84
2021/07/11 08:04:47;;;;;;;39.92;27.15;;;;;;;;;;5007000;28;20536;-83
2021/07/11 08:07:13;;;;;;;39.42;25.85;;;;;;;;;;4993994;28;20030;-83
2021/07/11 08:09:38;;;;;;;38.72;25.77;;;;;;;;;;5010900;28;20034;-83
2021/07/11 08:12:04;;;;;;;37.20;25.95;;;;;;;;;;5011055;28;20030;-83
2021/07/11 08:14:29;;;;;;;37.20;25.92;;;;;;;;;;5008209;28;20204;-83
2021/07/11 08:16:56;;;;;;;35.08;23.85;;;;;;;;;;5014493;28;20050;-83
2021/07/11 08:19:21;;;;;;;42.08;26.52;;;;;;;;;;5008404;28;20033;-84
2021/07/11 08:21:47;;;;;;;42.10;26.52;;;;;;;;;;5001288;28;20026;-84
2021/07/11 08:24:12;;;;;;;36.97;25.13;;;;;;;;;;5011623;28;20041;-83
2021/07/11 08:26:38;;;;;;;37.72;25.10;;;;;;;;;;4990958;28;20026;-83
2021/07/11 08:29:03;;;;;;;40.60;26.35;;;;;;;;;;5005979;28;20025;-83
2021/07/11 08:31:29;;;;;;;40.70;26.38;;;;;;;;;;5023481;28;21011;-83
2021/07/11 08:33:55;;;;;;;36.22;25.90;;;;;;;;;;5008201;28;20030;-83
2021/07/11 08:36:31;;;;;;;34.80;24.50;;;;;;;;;;5009664;28;20039;-84
2021/07/11 08:39:00;;;;;;;36.75;25.27;;;;;;;;;;5015987;28;20060;-84
2021/07/11 08:41:26;;;;;;;36.38;24.85;;;;;;;;;;5019455;28;20038;-84
2021/07/11 08:43:55;;;;;;;38.28;26.05;;;;;;;;;;5013926;28;20445;-84
2021/07/11 08:46:35;;;;;;;40.13;27.17;;;;;;;;;;5031501;28;20026;-84
2021/07/11 08:49:09;;;;;;;36.78;26.13;;;;;;;;;;5018213;28;20030;-84
2021/07/11 08:51:34;;;;;;;35.13;24.55;;;;;;;;;;5014453;28;20102;-84
2021/07/11 08:54:01;;;;;;;33.50;24.92;;;;;;;;;;5018733;28;20049;-83
2021/07/11 08:56:28;;;;;;;41.42;27.30;;;;;;;;;;5031542;28;20032;-84
2021/07/11 08:58:59;;;;;;;34.30;24.20;;;;;;;;;;4997025;28;20402;-84
2021/07/11 09:01:35;;;;;;;37.88;25.95;;;;;;;;;;5016314;28;20480;-84
2021/07/11 09:04:13;;;;;;;36.97;24.00;;;;;;;;;;5007095;28;20033;-86
2021/07/11 09:06:49;;;;;;;32.80;23.85;;;;;;;;;;5017376;28;20100;-84
2021/07/11 09:09:32;;;;;;;36.33;25.33;;;;;;;;;;5007865;28;20124;-84
2021/07/11 09:12:01;;;;;;;32.40;22.35;;;;;;;;;;5032424;28;20040;-84
2021/07/11 09:14:38;;;;;;;30.73;22.67;;;;;;;;;;5019174;28;20097;-84
2021/07/11 09:17:05;;;;;;;29.73;21.80;;;;;;;;;;5013979;28;20034;-84
2021/07/11 09:19:36;;;;;;;29.52;22.17;;;;;;;;;;5003678;28;20048;-84
2021/07/11 09:22:08;;;;;;;32.08;22.60;;;;;;;;;;5030170;28;20105;-84
2021/07/11 09:24:38;;;;;;;34.00;23.98;;;;;;;;;;5017906;28;20079;-84
2021/07/11 09:27:14;;;;;;;31.88;22.33;;;;;;;;;;5013411;28;20136;-84
2021/07/11 09:29:44;;;;;;;29.02;21.02;;;;;;;;;;5036315;28;20493;-84
2021/07/11 09:32:28;;;;;;;30.30;21.58;;;;;;;;;;5009522;28;20040;-84
2021/07/11 09:34:54;;;;;;;27.65;20.20;;;;;;;;;;5012414;28;20018;-83
2021/07/11 09:37:22;;;;;;;28.60;20.60;;;;;;;;;;4982849;28;20048;-82
2021/07/11 09:39:54;;;;;;;26.77;19.42;;;;;;;;;;5014962;28;20022;-83
2021/07/11 09:42:28;;;;;;;26.50;20.23;;;;;;;;;;5029623;28;20065;-82
2021/07/11 09:44:55;;;;;;;29.27;21.15;;;;;;;;;;5019547;28;20095;-82
2021/07/11 09:47:22;;;;;;;27.60;21.00;;;;;;;;;;5016450;28;20029;-83
2021/07/11 09:50:07;;;;;;;28.70;21.98;;;;;;;;;;5015930;28;20033;-83
2021/07/11 09:52:39;;;;;;;30.42;22.45;;;;;;;;;;5026983;28;20057;-83
2021/07/11 09:55:19;;;;;;;27.90;20.10;;;;;;;;;;5015059;28;20026;-83
2021/07/11 09:57:51;;;;;;;28.38;21.33;;;;;;;;;;5006136;28;20074;-83
2021/07/11 10:00:37;;;;;;;26.23;19.63;;;;;;;;;;5014543;28;20096;-83
2021/07/11 10:03:25;;;;;;;;;;;;;;;;;;;;;
2021/07/11 10:05:54;;;;;;;30.20;22.60;;;;;;;;;;5011162;28;20034;-84
2021/07/11 10:08:22;;;;;;;28.17;22.17;;;;;;;;;;5019179;28;20038;-83
2021/07/11 10:10:50;;;;;;;29.27;21.98;;;;;;;;;;5023744;28;20037;-83
2021/07/11 10:13:21;;;;;;;30.77;22.30;;;;;;;;;;4999859;28;20030;-83
2021/07/11 10:15:46;;;;;;;26.98;20.90;;;;;;;;;;4997706;28;20046;-83
2021/07/11 10:18:13;;;;;;;25.63;19.45;;;;;;;;;;5008819;28;20049;-84
2021/07/11 10:20:48;;;;;;;23.17;18.58;;;;;;;;;;5007272;28;20022;-84
2021/07/11 10:23:27;;;;;;;26.63;19.83;;;;;;;;;;5015784;28;20049;-84
2021/07/11 10:26:01;;;;;;;23.45;17.98;;;;;;;;;;5011022;28;20030;-85
2021/07/11 10:28:37;;;;;;;21.70;17.92;;;;;;;;;;5008521;28;20137;-84
2021/07/11 10:31:35;;;;;;;20.30;17.38;;;;;;;;;;5012266;28;20068;-85
2021/07/11 10:34:00;;;;;;;17.88;14.52;;;;;;;;;;5003438;28;20537;-83
2021/07/11 10:36:35;;;;;;;19.27;16.55;;;;;;;;;;4999275;28;20060;-84
2021/07/11 10:39:05;;;;;;;24.48;19.95;;;;;;;;;;5030623;28;20096;-84
2021/07/11 10:41:32;;;;;;;27.08;20.40;;;;;;;;;;4998456;28;20508;-85
2021/07/11 10:44:08;;;;;;;26.20;20.90;;;;;;;;;;5030433;28;20032;-84
2021/07/11 10:46:43;;;;;;;24.05;20.80;;;;;;;;;;5018016;28;21448;-84
2021/07/11 10:49:10;;;;;;;25.55;19.08;;;;;;;;;;5027715;28;20065;-84
2021/07/11 10:51:41;;;;;;;18.90;16.15;;;;;;;;;;5030362;28;20026;-84
2021/07/11 10:54:28;;;;;;;16.35;13.07;;;;;;;;;;5033268;28;20029;-84
2021/07/11 10:57:07;;;;;;;12.73;11.18;;;;;;;;;;5013606;28;20042;-84
2021/07/11 10:59:39;;;;;;;12.35;10.15;;;;;;;;;;5013236;28;21916;-84
2021/07/11 11:02:23;;;;;;;11.47;9.80;;;;;;;;;;5008086;28;20497;-83
2021/07/11 11:05:20;;;;;;;23.85;18.02;;;;;;;;;;5030234;28;20022;-84
2021/07/11 11:07:56;;;;;;;17.88;15.23;;;;;;;;;;5009319;28;20076;-84
2021/07/11 11:10:32;;;;;;;17.58;15.07;;;;;;;;;;4992076;28;20379;-83
2021/07/11 11:13:11;;;;;;;14.50;12.15;;;;;;;;;;5006952;28;20030;-83
2021/07/11 11:15:44;;;;;;;15.88;12.90;;;;;;;;;;5010881;28;20026;-82
2021/07/11 11:18:30;;;;;;;18.98;14.57;;;;;;;;;;5014405;28;20030;-83
2021/07/11 11:21:07;;;;;;;23.05;19.17;;;;;;;;;;5003635;28;20104;-84
2021/07/11 11:23:44;;;;;;;21.27;18.02;;;;;;;;;;5014198;28;20482;-84
2021/07/11 11:26:17;;;;;;;18.88;15.65;;;;;;;;;;5024454;28;20036;-84
2021/07/11 11:28:42;;;;;;;17.17;12.77;;;;;;;;;;5001838;28;20032;-83
2021/07/11 11:31:19;;;;;;;19.98;15.52;;;;;;;;;;5003422;28;20046;-84
2021/07/11 11:34:08;;;;;;;21.33;17.63;;;;;;;;;;5011395;28;20105;-83
2021/07/11 11:36:48;;;;;;;18.10;15.23;;;;;;;;;;5007190;28;20128;-83
2021/07/11 11:39:20;;;;;;;17.02;14.00;;;;;;;;;;5006852;28;20525;-84
2021/07/11 11:41:46;;;;;;;20.17;15.45;;;;;;;;;;5009646;28;20030;-83
2021/07/11 11:44:18;;;;;;;19.35;15.90;;;;;;;;;;5009079;28;20033;-83
2021/07/11 11:46:46;;;;;;;18.45;15.10;;;;;;;;;;5014212;28;20034;-84
2021/07/11 11:49:14;;;;;;;17.80;15.32;;;;;;;;;;5030383;28;20498;-84
2021/07/11 11:51:52;;;;;;;17.33;14.50;;;;;;;;;;5016180;28;20084;-84
2021/07/11 11:54:25;;;;;;;16.52;13.63;;;;;;;;;;5031294;28;20021;-83
2021/07/11 11:56:51;;;;;;;16.25;12.90;;;;;;;;;;5015430;28;20053;-82
2021/07/11 11:59:16;;;;;;;13.60;11.50;;;;;;;;;;4983856;28;20037;-83
2021/07/11 12:01:43;;;;;;;13.82;11.63;;;;;;;;;;5024311;28;20147;-82
2021/07/11 12:04:14;;;;;;;12.63;11.23;;;;;;;;;;5015483;28;20473;-84
2021/07/11 12:06:41;;;;;;;15.73;12.18;;;;;;;;;;5017215;28;20068;-84
2021/07/11 12:09:09;;;;;;;13.55;11.90;;;;;;;;;;5031355;28;20624;-83
2021/07/11 12:11:35;;;;;;;11.05;9.52;;;;;;;;;;5012185;28;20045;-83
2021/07/11 12:14:11;;;;;;;16.00;12.23;;;;;;;;;;5012468;28;20113;-83
2021/07/11 12:16:37;;;;;;;14.18;11.77;;;;;;;;;;5020627;28;20454;-83
2021/07/11 12:19:07;;;;;;;9.07;7.90;;;;;;;;;;5014447;28;20033;-83
2021/07/11 12:21:36;;;;;;;6.97;5.22;;;;;;;;;;5012915;28;20034;-83
2021/07/11 12:24:07;;;;;;;5.70;4.50;;;;;;;;;;5030578;28;20030;-84
2021/07/11 12:26:37;;;;;;;4.95;4.03;;;;;;;;;;5020213;28;20022;-83
2021/07/11 12:29:03;;;;;;;5.30;4.45;;;;;;;;;;5027357;28;20486;-83
2021/07/11 12:31:30;;;;;;;4.47;4.07;;;;;;;;;;5004260;28;20474;-83
2021/07/11 12:34:04;;;;;;;4.75;4.00;;;;;;;;;;5014055;28;20403;-84
2021/07/11 12:36:30;;;;;;;4.85;3.90;;;;;;;;;;5015193;28;20030;-84
2021/07/11 12:38:57;;;;;;;4.88;4.03;;;;;;;;;;5014719;28;20030;-83
2021/07/11 12:41:43;;;;;;;5.60;5.05;;;;;;;;;;5013291;28;20038;-83
2021/07/11 12:44:08;;;;;;;5.45;4.70;;;;;;;;;;5014060;28;20510;-83
2021/07/11 12:46:35;;;;;;;5.10;4.60;;;;;;;;;;4975790;28;20069;-83
2021/07/11 12:49:17;;;;;;;6.25;5.65;;;;;;;;;;5014309;28;20045;-83
2021/07/11 12:51:50;;;;;;;7.07;6.38;;;;;;;;;;5014324;28;20092;-83
2021/07/11 12:54:19;;;;;;;5.82;5.25;;;;;;;;;;5013245;28;20120;-83
2021/07/11 12:57:01;;;;;;;6.57;5.45;;;;;;;;;;5009200;28;20049;-82
2021/07/11 12:59:50;;;;;;;6.63;5.70;;;;;;;;;;5015102;28;20112;-83
2021/07/11 13:02:20;;;;;;;7.15;5.80;;;;;;;;;;5014190;28;20030;-83
2021/07/11 13:04:54;;;;;;;5.00;4.20;;;;;;;;;;5016236;28;20026;-83
2021/07/11 13:07:22;;;;;;;6.28;4.43;;;;;;;;;;5015309;28;20034;-83
2021/07/11 13:09:48;;;;;;;5.90;5.30;;;;;;;;;;5015865;28;20029;-83
2021/07/11 13:12:14;;;;;;;6.20;5.60;;;;;;;;;;5015353;28;20510;-84
2021/07/11 13:14:57;;;;;;;5.95;4.63;;;;;;;;;;5015072;28;20104;-83
2021/07/11 13:17:23;;;;;;;;;;;;;;;;;;5024240;28;20401;-82
2021/07/11 13:19:50;;;;;;;5.57;4.50;;;;;;;;;;5010092;28;19917;-82
2021/07/11 13:22:15;;;;;;;6.47;4.30;;;;;;;;;;5015681;28;20137;-83
2021/07/11 13:24:41;;;;;;;5.80;3.83;;;;;;;;;;5011568;28;20469;-82
2021/07/11 13:27:06;;;;;;;5.28;4.03;;;;;;;;;;5014638;28;20029;-82
2021/07/11 13:29:32;;;;;;;4.43;3.35;;;;;;;;;;5028565;28;20022;-84
2021/07/11 13:31:57;;;;;;;5.68;4.40;;;;;;;;;;4993147;28;20088;-84
2021/07/11 13:34:23;;;;;;;5.75;4.05;;;;;;;;;;5026819;28;20457;-82
2021/07/11 13:36:48;;;;;;;6.82;3.90;;;;;;;;;;5007893;28;20026;-82
2021/07/11 13:39:14;;;;;;;5.78;4.25;;;;;;;;;;4980576;28;20044;-83
2021/07/11 13:41:40;;;;;;;5.90;4.70;;;;;;;;;;5030574;28;20085;-83
2021/07/11 13:44:05;;;;;;;7.00;5.10;;;;;;;;;;5015498;28;20084;-84
2021/07/11 13:46:31;;;;;;;5.68;4.65;;;;;;;;;;4996261;28;20117;-83
2021/07/11 13:48:56;;;;;;;6.53;5.03;;;;;;;;;;5029964;28;20022;-83
2021/07/11 13:51:22;;;;;;;5.75;4.68;;;;;;;;;;5004838;28;20041;-83
2021/07/11 13:53:47;;;;;;;6.70;5.13;;;;;;;;;;5028559;28;20025;-83
2021/07/11 13:56:13;;;;;;;7.90;4.95;;;;;;;;;;4979365;28;20042;-83
2021/07/11 13:58:38;;;;;;;5.97;5.00;;;;;;;;;;4992789;28;20064;-83
2021/07/11 14:01:04;;;;;;;6.10;4.32;;;;;;;;;;5012901;28;20042;-83
2021/07/11 14:03:30;;;;;;;6.60;5.25;;;;;;;;;;5012324;28;20030;-83
2021/07/11 14:05:55;;;;;;;8.07;4.55;;;;;;;;;;4972333;28;20033;-82
2021/07/11 14:08:21;;;;;;;5.65;4.35;;;;;;;;;;5011803;28;20034;-83
2021/07/11 14:10:46;;;;;;;4.50;4.00;;;;;;;;;;4991561;28;20034;-83
2021/07/11 14:13:12;;;;;;;5.40;4.68;;;;;;;;;;5013622;28;20034;-83
2021/07/11 14:15:39;;;;;;;5.30;4.80;;;;;;;;;;5011821;28;20026;-83
2021/07/11 14:18:05;;;;;;;6.95;5.22;;;;;;;;;;4999871;28;20397;-84
2021/07/11 14:20:31;;;;;;;5.90;5.30;;;;;;;;;;5013421;28;20473;-83
2021/07/11 14:22:58;;;;;;;6.00;5.25;;;;;;;;;;5013839;28;20041;-84
2021/07/11 14:25:24;;;;;;;6.35;5.20;;;;;;;;;;5019203;28;20038;-84
2021/07/11 14:27:50;;;;;;;6.68;5.93;;;;;;;;;;5028902;28;20385;-84
2021/07/11 14:30:16;;;;;;;6.10;5.30;;;;;;;;;;5033317;28;20026;-83
2021/07/11 14:32:43;;;;;;;5.90;5.30;;;;;;;;;;5010971;28;20041;-83